Time;durP1;ratioP1;P1;durP2;ratioP2;P2;SDS_P1;SDS_P2;PMS_P1;PMS_P2;Temp;Humidity;BMP_temperature;BMP_pressure;BME280_temperature;BME280_humidity;BME280_pressure;Samples;Min_cycle;Max_cycle;Signal;HPM_P1;HPM_P2
2023/07/15 00:00:13;;;;;;;7.55;3.50;;;20.20;99.90;;;;;;6247000;22;20086;-67
2023/07/15 00:02:41;;;;;;;6.50;3.47;;;20.20;99.90;;;;;;6245164;23;20389;-67
2023/07/15 00:05:18;;;;;;;5.85;3.45;;;20.20;99.90;;;;;;6246155;23;20323;-66
2023/07/15 00:07:45;;;;;;;8.07;3.75;;;20.20;99.90;;;;;;6245193;23;20028;-66
2023/07/15 00:10:15;;;;;;;7.18;3.67;;;20.20;99.90;;;;;;6244906;23;20103;-67
2023/07/15 00:12:42;;;;;;;6.88;3.38;;;20.30;99.90;;;;;;6244204;23;20107;-68
2023/07/15 00:15:12;;;;;;;13.45;3.83;;;20.20;99.90;;;;;;6246806;23;20020;-69
2023/07/15 00:17:39;;;;;;;8.93;3.70;;;20.20;99.90;;;;;;6245122;23;20026;-68
2023/07/15 00:20:08;;;;;;;5.90;3.53;;;20.20;99.90;;;;;;6246204;22;20062;-67
2023/07/15 00:22:36;;;;;;;5.85;3.35;;;20.20;99.90;;;;;;6244683;23;20099;-67
2023/07/15 00:25:05;;;;;;;5.68;3.53;;;20.20;99.90;;;;;;6244731;23;20411;-62
2023/07/15 00:27:34;;;;;;;7.47;3.80;;;20.20;99.90;;;;;;6244095;23;20019;-62
2023/07/15 00:30:01;;;;;;;6.60;3.33;;;20.20;99.90;;;;;;6246644;23;20462;-62
2023/07/15 00:32:28;;;;;;;6.68;3.20;;;20.20;99.90;;;;;;6245726;23;20021;-62
2023/07/15 00:34:55;;;;;;;7.97;3.10;;;20.20;99.90;;;;;;6246696;23;20020;-61
2023/07/15 00:37:22;;;;;;;8.82;3.60;;;20.30;99.90;;;;;;6244677;23;20439;-62
2023/07/15 00:39:49;;;;;;;7.38;3.67;;;20.30;99.90;;;;;;6244148;23;20047;-62
2023/07/15 00:42:22;;;;;;;5.60;2.90;;;20.30;99.90;;;;;;6244216;23;20026;-62
2023/07/15 00:44:50;;;;;;;5.80;2.92;;;20.30;99.90;;;;;;6245919;22;20028;-61
2023/07/15 00:47:32;;;;;;;5.35;3.08;;;20.30;99.90;;;;;;6243997;23;20024;-61
2023/07/15 00:49:59;;;;;;;8.70;3.80;;;20.40;99.90;;;;;;6246214;23;20411;-62
2023/07/15 00:52:26;;;;;;;5.57;3.38;;;20.40;99.90;;;;;;6246497;23;20095;-61
2023/07/15 00:54:55;;;;;;;5.43;3.17;;;20.40;99.90;;;;;;6243817;23;20030;-62
2023/07/15 00:57:22;;;;;;;5.03;3.42;;;20.40;99.90;;;;;;6246091;23;20035;-61
2023/07/15 00:59:53;;;;;;;6.18;3.17;;;20.40;99.90;;;;;;6244639;23;20020;-61
2023/07/15 01:02:20;;;;;;;;;;;20.40;99.90;;;;;;6245874;23;20055;-61
2023/07/15 01:04:50;;;;;;;7.55;3.75;;;20.40;99.90;;;;;;6244400;23;20334;-62
2023/07/15 01:07:17;;;;;;;7.33;3.50;;;20.40;99.90;;;;;;6245927;23;20024;-62
2023/07/15 01:09:46;;;;;;;4.15;2.88;;;20.40;99.90;;;;;;6245754;23;20251;-61
2023/07/15 01:12:14;;;;;;;12.60;3.50;;;20.40;99.90;;;;;;6244314;23;20095;-61
2023/07/15 01:14:42;;;;;;;5.85;3.35;;;20.40;99.90;;;;;;6245459;23;20250;-61
2023/07/15 01:17:09;;;;;;;4.72;3.00;;;20.40;99.90;;;;;;6246200;23;20020;-62
2023/07/15 01:19:36;;;;;;;7.78;3.20;;;20.40;99.90;;;;;;6244279;23;20035;-61
2023/07/15 01:22:07;;;;;;;10.73;3.53;;;20.40;99.90;;;;;;6245479;23;20027;-62
2023/07/15 01:24:36;;;;;;;8.40;3.50;;;20.40;99.90;;;;;;6245778;22;20103;-60
2023/07/15 01:27:06;;;;;;;5.57;3.13;;;20.40;99.90;;;;;;6245757;23;20467;-61
2023/07/15 01:29:33;;;;;;;7.03;3.15;;;20.30;99.90;;;;;;6245441;23;20089;-60
2023/07/15 01:32:00;;;;;;;5.15;3.35;;;20.30;99.90;;;;;;6244243;23;20458;-61
2023/07/15 01:34:30;;;;;;;5.15;3.25;;;20.30;99.90;;;;;;6245684;22;20442;-61
2023/07/15 01:36:57;;;;;;;6.03;2.78;;;20.30;99.90;;;;;;6245297;22;20024;-67
2023/07/15 01:39:25;;;;;;;5.90;3.20;;;20.30;99.90;;;;;;6244145;23;20019;-67
2023/07/15 01:41:55;;;;;;;6.88;3.03;;;20.30;99.90;;;;;;6243855;23;20028;-67
2023/07/15 01:44:23;;;;;;;3.25;2.40;;;20.30;99.90;;;;;;6245251;23;20062;-67
2023/07/15 01:46:50;;;;;;;5.53;2.80;;;20.30;99.90;;;;;;6244059;23;20024;-67
2023/07/15 01:49:17;;;;;;;5.65;3.15;;;20.30;99.90;;;;;;6245970;23;20090;-67
2023/07/15 01:51:44;;;;;;;4.97;2.80;;;20.40;99.90;;;;;;6243168;23;20030;-66
2023/07/15 01:54:11;;;;;;;4.70;3.00;;;20.30;99.90;;;;;;6246080;22;20016;-67
2023/07/15 01:56:41;;;;;;;6.22;2.97;;;20.40;99.90;;;;;;6243919;23;20028;-66
2023/07/15 01:59:11;;;;;;;6.97;2.95;;;20.40;99.90;;;;;;6243167;23;20131;-67
2023/07/15 02:01:39;;;;;;;;;;;20.40;99.90;;;;;;6246246;22;20078;-67
2023/07/15 02:04:06;;;;;;;6.82;2.95;;;20.40;99.90;;;;;;6243119;23;19919;-66
2023/07/15 02:06:32;;;;;;;4.40;2.40;;;20.40;99.90;;;;;;6243800;23;20031;-67
2023/07/15 02:08:59;;;;;;;5.28;3.00;;;20.40;99.90;;;;;;6243958;23;20127;-67
2023/07/15 02:11:26;;;;;;;7.75;2.70;;;20.50;99.90;;;;;;6242238;23;20034;-66
2023/07/15 02:13:53;;;;;;;5.93;2.63;;;20.50;99.90;;;;;;6243893;23;20016;-67
2023/07/15 02:16:22;;;;;;;6.95;2.85;;;20.50;99.90;;;;;;6245793;23;20026;-67
2023/07/15 02:18:49;;;;;;;5.00;2.58;;;20.50;99.90;;;;;;6244606;23;20544;-67
2023/07/15 02:21:16;;;;;;;8.32;3.10;;;20.50;99.90;;;;;;6243817;23;20465;-67
2023/07/15 02:23:43;;;;;;;5.80;2.33;;;20.50;99.90;;;;;;6245123;23;20541;-62
2023/07/15 02:26:10;;;;;;;5.28;2.50;;;20.50;99.90;;;;;;6243080;23;20032;-62
2023/07/15 02:28:37;;;;;;;5.53;2.67;;;20.50;99.90;;;;;;6243640;23;20024;-62
2023/07/15 02:31:05;;;;;;;5.72;2.72;;;20.40;99.90;;;;;;6245613;23;20020;-61
2023/07/15 02:33:33;;;;;;;9.45;3.08;;;20.40;99.90;;;;;;6244637;23;20020;-61
2023/07/15 02:36:00;;;;;;;4.18;2.30;;;20.40;99.90;;;;;;6245573;22;20028;-62
2023/07/15 02:38:27;;;;;;;5.75;2.58;;;20.40;99.90;;;;;;6245459;23;20034;-62
2023/07/15 02:40:56;;;;;;;4.90;2.67;;;20.40;99.90;;;;;;6242810;23;20020;-62
2023/07/15 02:43:23;;;;;;;4.85;2.38;;;20.40;99.90;;;;;;6245056;23;20423;-61
2023/07/15 02:45:51;;;;;;;9.20;2.63;;;20.40;99.90;;;;;;6243771;23;20028;-62
2023/07/15 02:48:19;;;;;;;5.78;2.40;;;20.40;99.90;;;;;;6244760;23;20024;-61
2023/07/15 02:50:51;;;;;;;4.80;2.33;;;20.40;99.90;;;;;;6245221;22;20023;-61
2023/07/15 02:53:18;;;;;;;6.40;2.30;;;20.40;99.90;;;;;;6242852;23;20393;-61
2023/07/15 02:55:45;;;;;;;4.15;2.60;;;20.40;99.90;;;;;;6245285;23;20030;-60
2023/07/15 02:58:13;;;;;;;4.65;2.40;;;20.30;99.90;;;;;;6245526;23;20377;-62
2023/07/15 03:00:40;;;;;;;4.55;2.38;;;20.30;99.90;;;;;;6242779;23;20462;-61
2023/07/15 03:03:09;;;;;;;9.57;2.80;;;20.30;99.90;;;;;;6243411;23;20087;-61
2023/07/15 03:05:36;;;;;;;3.75;2.45;;;20.20;99.90;;;;;;6243530;23;20027;-62
2023/07/15 03:08:05;;;;;;;4.63;2.30;;;20.10;99.90;;;;;;6242606;23;20024;-62
2023/07/15 03:10:32;;;;;;;4.70;2.80;;;20.10;99.90;;;;;;6245399;23;20024;-60
2023/07/15 03:12:59;;;;;;;5.22;2.40;;;20.10;99.90;;;;;;6243445;23;20028;-62
2023/07/15 03:15:25;;;;;;;6.32;2.25;;;20.10;99.90;;;;;;6242509;23;20020;-62
2023/07/15 03:17:52;;;;;;;3.92;2.40;;;20.10;99.90;;;;;;6243316;23;20024;-62
2023/07/15 03:20:20;;;;;;;6.40;2.50;;;20.10;99.90;;;;;;6244628;23;20159;-62
2023/07/15 03:22:47;;;;;;;3.47;2.45;;;20.10;99.90;;;;;;6244933;23;20081;-62
2023/07/15 03:25:16;;;;;;;8.63;2.63;;;20.10;99.90;;;;;;6246893;23;20027;-61
2023/07/15 03:27:44;;;;;;;7.05;2.90;;;20.20;99.90;;;;;;6246805;23;20071;-62
2023/07/15 03:30:11;;;;;;;4.88;2.00;;;20.20;99.90;;;;;;6244220;23;20028;-62
2023/07/15 03:32:39;;;;;;;4.70;2.22;;;20.20;99.90;;;;;;6246755;23;20071;-60
2023/07/15 03:35:08;;;;;;;4.18;2.80;;;20.20;99.90;;;;;;6245059;23;20104;-61
2023/07/15 03:37:36;;;;;;;4.03;2.40;;;20.20;99.90;;;;;;6246161;23;20020;-62
2023/07/15 03:40:04;;;;;;;5.03;2.50;;;20.20;99.90;;;;;;6245375;23;20028;-62
2023/07/15 03:42:33;;;;;;;5.30;2.55;;;20.20;99.90;;;;;;6246156;22;20103;-67
2023/07/15 03:45:00;;;;;;;5.03;2.78;;;20.10;99.90;;;;;;6245206;23;20060;-67
2023/07/15 03:47:27;;;;;;;4.18;2.40;;;20.00;99.90;;;;;;6245408;23;20028;-66
2023/07/15 03:49:54;;;;;;;5.78;2.75;;;20.00;99.90;;;;;;6244527;23;20424;-66
2023/07/15 03:52:21;;;;;;;5.43;2.63;;;19.90;99.90;;;;;;6246867;23;20020;-66
2023/07/15 03:54:48;;;;;;;5.10;2.58;;;19.90;99.90;;;;;;6245022;23;20024;-62
2023/07/15 03:57:15;;;;;;;4.60;2.63;;;19.90;99.90;;;;;;6244599;23;20020;-61
2023/07/15 03:59:43;;;;;;;5.18;2.90;;;19.80;99.90;;;;;;6245168;23;20461;-66
2023/07/15 04:02:10;;;;;;;5.47;3.00;;;19.80;99.90;;;;;;6245167;23;20328;-65
2023/07/15 04:04:37;;;;;;;4.13;2.50;;;19.70;99.90;;;;;;6246111;23;20020;-66
2023/07/15 04:07:04;;;;;;;5.05;2.47;;;19.70;99.90;;;;;;6245191;23;20024;-65
2023/07/15 04:09:31;;;;;;;6.68;2.45;;;19.70;99.90;;;;;;6244997;23;20020;-65
2023/07/15 04:11:58;;;;;;;4.15;2.42;;;19.60;99.90;;;;;;6246292;23;20024;-65
2023/07/15 04:14:25;;;;;;;3.95;2.65;;;19.60;99.90;;;;;;6244968;23;20024;-66
2023/07/15 04:16:53;;;;;;;4.15;2.50;;;19.60;99.90;;;;;;6246869;23;20358;-66
2023/07/15 04:19:20;;;;;;;4.78;2.78;;;19.60;99.90;;;;;;6245737;23;20028;-65
2023/07/15 04:21:47;;;;;;;8.57;2.65;;;19.60;99.90;;;;;;6246955;23;20027;-65
2023/07/15 04:24:14;;;;;;;5.47;2.60;;;19.60;99.90;;;;;;6244702;23;20023;-65
2023/07/15 04:26:43;;;;;;;5.63;2.50;;;19.60;99.90;;;;;;6244115;23;20020;-67
2023/07/15 04:29:10;;;;;;;5.57;2.65;;;19.60;99.90;;;;;;6244873;23;20024;-67
2023/07/15 04:31:37;;;;;;;6.45;2.95;;;19.60;99.90;;;;;;6244208;23;20051;-66
2023/07/15 04:34:05;;;;;;;6.45;3.05;;;19.60;99.90;;;;;;6246417;23;20027;-67
2023/07/15 04:36:32;;;;;;;9.27;2.72;;;19.60;99.90;;;;;;6244851;23;20027;-67
2023/07/15 04:38:59;;;;;;;4.63;2.35;;;19.60;99.90;;;;;;6244058;23;20085;-67
2023/07/15 04:41:26;;;;;;;5.43;2.88;;;19.60;99.90;;;;;;6244956;23;20020;-67
2023/07/15 04:43:53;;;;;;;5.78;2.30;;;19.60;99.90;;;;;;6244410;23;20491;-66
2023/07/15 04:46:20;;;;;;;5.15;2.80;;;19.60;99.90;;;;;;6244002;23;20020;-66
2023/07/15 04:48:47;;;;;;;11.35;2.80;;;19.70;99.90;;;;;;6244723;23;20466;-67
2023/07/15 04:51:15;;;;;;;6.93;2.85;;;19.70;99.90;;;;;;6246231;23;20454;-67
2023/07/15 04:53:43;;;;;;;8.60;2.53;;;19.80;99.90;;;;;;6243944;23;20475;-67
2023/07/15 04:56:11;;;;;;;6.18;2.90;;;19.90;99.90;;;;;;6244595;23;20020;-66
2023/07/15 04:58:38;;;;;;;5.68;2.38;;;20.00;99.90;;;;;;6246524;23;20077;-65
2023/07/15 05:01:05;;;;;;;5.15;2.78;;;20.10;99.90;;;;;;6246050;23;20027;-66
2023/07/15 05:03:34;;;;;;;6.25;2.85;;;20.20;99.90;;;;;;6246283;23;20085;-67
2023/07/15 05:06:01;;;;;;;6.20;2.78;;;20.30;99.90;;;;;;6244389;23;20046;-67
2023/07/15 05:08:30;;;;;;;5.32;2.55;;;20.40;99.90;;;;;;6243779;23;20406;-67
2023/07/15 05:10:57;;;;;;;9.73;2.85;;;20.40;99.90;;;;;;6244521;23;20027;-68
2023/07/15 05:13:25;;;;;;;3.83;2.47;;;20.40;99.90;;;;;;6245947;23;20024;-62
2023/07/15 05:15:52;;;;;;;6.38;2.58;;;20.50;99.90;;;;;;6245273;22;20028;-62
2023/07/15 05:18:19;;;;;;;5.97;2.55;;;20.60;99.90;;;;;;6245950;23;20466;-61
2023/07/15 05:20:46;;;;;;;3.60;2.58;;;20.60;99.90;;;;;;6242083;22;20028;-61
2023/07/15 05:23:14;;;;;;;8.55;2.83;;;20.60;99.90;;;;;;6243201;23;20071;-62
2023/07/15 05:25:42;;;;;;;7.38;3.42;;;20.60;99.90;;;;;;6244124;23;20473;-62
2023/07/15 05:28:09;;;;;;;4.18;2.10;;;20.80;99.90;;;;;;6244725;23;20028;-61
2023/07/15 05:30:37;;;;;;;6.43;2.55;;;20.90;99.90;;;;;;6244472;23;20078;-61
2023/07/15 05:33:04;;;;;;;3.60;2.60;;;21.00;99.90;;;;;;6243643;23;20331;-61
2023/07/15 05:35:31;;;;;;;6.90;2.95;;;21.10;99.90;;;;;;6242229;23;20047;-61
2023/07/15 05:37:58;;;;;;;5.57;2.90;;;21.20;99.90;;;;;;6243316;23;20024;-61
2023/07/15 05:40:25;;;;;;;3.58;2.35;;;21.40;99.90;;;;;;6244652;22;20050;-61
2023/07/15 05:42:53;;;;;;;8.05;3.10;;;21.50;99.90;;;;;;6242641;23;20366;-62
2023/07/15 05:45:20;;;;;;;5.03;2.40;;;21.60;99.90;;;;;;6243871;23;20078;-61
2023/07/15 05:47:47;;;;;;;6.50;2.30;;;21.70;99.90;;;;;;6244980;23;20472;-62
2023/07/15 05:50:14;;;;;;;6.15;2.88;;;21.80;99.90;;;;;;6243905;22;20450;-62
2023/07/15 05:52:41;;;;;;;5.30;2.55;;;21.90;99.90;;;;;;6243022;23;20028;-60
2023/07/15 05:55:09;;;;;;;4.75;2.42;;;22.00;99.90;;;;;;6243023;23;20024;-61
2023/07/15 05:57:36;;;;;;;6.25;3.25;;;22.10;99.90;;;;;;6242002;23;20032;-62
2023/07/15 06:00:07;;;;;;;5.90;2.55;;;22.20;99.90;;;;;;6244957;23;20081;-62
2023/07/15 06:02:34;;;;;;;5.00;2.40;;;22.30;99.90;;;;;;6244163;23;20366;-62
2023/07/15 06:05:01;;;;;;;3.97;2.53;;;22.40;99.90;;;;;;6243505;23;20021;-61
2023/07/15 06:07:28;;;;;;;6.63;2.53;;;22.60;99.90;;;;;;6242452;23;20024;-63
2023/07/15 06:09:55;;;;;;;7.00;2.92;;;22.70;99.90;;;;;;6243034;23;20465;-61
2023/07/15 06:12:22;;;;;;;7.55;2.70;;;22.80;99.90;;;;;;6243754;23;20026;-61
2023/07/15 06:14:49;;;;;;;4.43;2.65;;;22.90;99.90;;;;;;6244860;23;20070;-62
2023/07/15 06:17:17;;;;;;;4.55;2.53;;;23.00;99.90;;;;;;6243347;23;20024;-62
2023/07/15 06:19:44;;;;;;;5.60;2.22;;;23.10;99.90;;;;;;6244997;23;20028;-62
2023/07/15 06:22:11;;;;;;;4.60;2.45;;;23.30;99.90;;;;;;6242722;23;20028;-63
2023/07/15 06:24:38;;;;;;;4.47;2.40;;;23.60;99.90;;;;;;6243973;23;20320;-62
2023/07/15 06:27:06;;;;;;;5.95;2.55;;;23.70;99.90;;;;;;6244641;22;20350;-62
2023/07/15 06:29:33;;;;;;;6.57;2.45;;;23.90;99.90;;;;;;6244961;23;20024;-62
2023/07/15 06:32:00;;;;;;;3.97;2.13;;;23.90;99.90;;;;;;6243502;23;20381;-61
2023/07/15 06:34:29;;;;;;;4.35;2.45;;;23.90;99.90;;;;;;6244871;23;20362;-63
2023/07/15 06:36:56;;;;;;;7.13;2.17;;;23.90;99.90;;;;;;6244036;23;20024;-63
2023/07/15 06:39:22;;;;;;;7.28;2.35;;;23.80;99.90;;;;;;6241483;23;20397;-62
2023/07/15 06:41:51;;;;;;;3.33;2.03;;;24.00;99.90;;;;;;6244062;23;20540;-62
2023/07/15 06:44:18;;;;;;;6.30;2.58;;;24.20;99.90;;;;;;6244551;23;20107;-61
2023/07/15 06:46:45;;;;;;;5.93;2.38;;;24.30;99.90;;;;;;6243786;23;20086;-62
2023/07/15 06:49:12;;;;;;;7.75;2.05;;;24.40;99.90;;;;;;6244209;23;20035;-63
2023/07/15 06:51:40;;;;;;;3.63;2.00;;;24.70;99.90;;;;;;6242693;23;20028;-63
2023/07/15 06:54:08;;;;;;;7.50;2.55;;;24.70;99.90;;;;;;6242216;23;20028;-62
2023/07/15 06:56:35;;;;;;;5.28;2.33;;;25.00;99.90;;;;;;6243796;23;20068;-63
2023/07/15 06:59:02;;;;;;;4.60;2.13;;;25.00;99.90;;;;;;6244605;22;20020;-63
2023/07/15 07:01:29;;;;;;;3.25;1.85;;;24.90;99.90;;;;;;6243875;23;20035;-62
2023/07/15 07:03:56;;;;;;;4.88;2.00;;;25.00;99.90;;;;;;6242801;23;20365;-62
2023/07/15 07:06:23;;;;;;;3.28;2.10;;;25.10;99.90;;;;;;6243144;23;20016;-62
2023/07/15 07:08:51;;;;;;;4.38;2.53;;;25.40;99.90;;;;;;6244357;23;20035;-62
2023/07/15 07:11:18;;;;;;;6.57;2.28;;;25.40;99.90;;;;;;6244313;23;20079;-63
2023/07/15 07:13:45;;;;;;;4.55;2.50;;;25.50;99.90;;;;;;6243374;23;20032;-62
2023/07/15 07:16:12;;;;;;;5.15;2.72;;;25.50;99.90;;;;;;6244243;22;20053;-62
2023/07/15 07:18:39;;;;;;;4.40;2.53;;;26.00;99.90;;;;;;6244626;22;20028;-60
2023/07/15 07:21:06;;;;;;;5.20;1.98;;;26.40;99.90;;;;;;6243939;22;20030;-62
2023/07/15 07:23:33;;;;;;;3.90;2.20;;;26.60;99.90;;;;;;6244039;23;20028;-62
2023/07/15 07:26:02;;;;;;;4.20;2.13;;;27.00;99.90;;;;;;6243995;23;20024;-62
2023/07/15 07:28:42;;;;;;;7.50;2.00;;;26.90;99.90;;;;;;6243761;22;20024;-62
2023/07/15 07:31:10;;;;;;;4.15;2.00;;;26.80;99.70;;;;;;6242308;23;20031;-62
2023/07/15 07:33:37;;;;;;;7.15;2.10;;;26.30;99.90;;;;;;6239278;23;20027;-62
2023/07/15 07:36:04;;;;;;;9.95;2.20;;;26.30;99.90;;;;;;6238172;23;20016;-62
2023/07/15 07:38:31;;;;;;;9.30;2.40;;;26.10;99.90;;;;;;6242888;23;20020;-63
2023/07/15 07:41:06;;;;;;;5.03;2.15;;;26.20;99.90;;;;;;6241396;23;20403;-63
2023/07/15 07:43:33;;;;;;;4.55;1.90;;;26.80;99.70;;;;;;6242758;23;20099;-62
2023/07/15 07:46:01;;;;;;;4.60;2.22;;;27.20;99.50;;;;;;6240453;23;20389;-63
2023/07/15 07:48:28;;;;;;;4.53;2.40;;;27.00;99.00;;;;;;6243869;22;20032;-62
2023/07/15 07:50:55;;;;;;;4.43;2.03;;;27.00;98.90;;;;;;6242636;23;20075;-62
2023/07/15 07:53:22;;;;;;;5.28;2.10;;;26.90;98.60;;;;;;6243406;23;20079;-61
2023/07/15 07:55:50;;;;;;;4.43;2.08;;;26.80;98.90;;;;;;6240214;23;20050;-61
2023/07/15 07:58:18;;;;;;;5.05;2.20;;;26.60;99.10;;;;;;6243886;23;20078;-61
2023/07/15 08:00:45;;;;;;;4.55;2.00;;;26.80;98.90;;;;;;6241619;23;20023;-61
2023/07/15 08:03:12;;;;;;;5.07;2.15;;;27.20;98.90;;;;;;6241408;23;20358;-60
2023/07/15 08:05:43;;;;;;;3.42;2.13;;;27.70;98.60;;;;;;6243712;22;20340;-61
2023/07/15 08:08:10;;;;;;;4.47;1.90;;;28.00;97.90;;;;;;6243778;23;20028;-62
2023/07/15 08:10:37;;;;;;;5.10;2.35;;;28.30;97.30;;;;;;6242982;23;20039;-61
2023/07/15 08:13:06;;;;;;;4.13;1.80;;;28.20;96.60;;;;;;6245658;23;20024;-61
2023/07/15 08:15:34;;;;;;;3.35;1.55;;;27.90;96.50;;;;;;6243852;23;20016;-62
2023/07/15 08:18:02;;;;;;;5.28;1.67;;;27.70;96.10;;;;;;6244781;23;20103;-62
2023/07/15 08:20:30;;;;;;;3.42;1.92;;;27.60;95.50;;;;;;6243351;23;20028;-61
2023/07/15 08:22:58;;;;;;;4.13;1.48;;;27.50;95.00;;;;;;6244868;22;20458;-61
2023/07/15 08:25:25;;;;;;;5.90;1.60;;;27.20;95.10;;;;;;6244292;23;20024;-62
2023/07/15 08:27:53;;;;;;;3.67;1.50;;;27.00;95.40;;;;;;6244343;23;20497;-62
2023/07/15 08:30:20;;;;;;;5.50;1.90;;;26.90;95.70;;;;;;6243497;23;20106;-62
2023/07/15 08:32:48;;;;;;;4.72;1.38;;;26.80;96.10;;;;;;6244427;23;20462;-61
2023/07/15 08:35:15;;;;;;;4.70;1.23;;;26.80;96.20;;;;;;6245711;23;20028;-62
2023/07/15 08:37:42;;;;;;;3.92;1.40;;;26.80;96.00;;;;;;6245254;23;20351;-62
2023/07/15 08:40:11;;;;;;;4.13;1.60;;;26.50;96.30;;;;;;6244959;23;20055;-62
2023/07/15 08:42:38;;;;;;;3.13;1.38;;;26.60;96.70;;;;;;6243276;23;20035;-62
2023/07/15 08:45:06;;;;;;;2.90;1.45;;;27.30;96.40;;;;;;6245079;22;20020;-62
2023/07/15 08:47:33;;;;;;;3.10;1.30;;;27.20;96.20;;;;;;6242554;23;20023;-61
2023/07/15 08:50:05;;;;;;;3.70;1.40;;;27.50;95.80;;;;;;6243406;23;20032;-62
2023/07/15 08:52:32;;;;;;;3.92;1.40;;;28.10;95.50;;;;;;6245740;23;20028;-62
2023/07/15 08:55:00;;;;;;;3.92;1.27;;;28.30;95.10;;;;;;6244969;23;20081;-62
2023/07/15 08:57:27;;;;;;;2.60;1.13;;;28.70;94.90;;;;;;6244422;23;20032;-62
2023/07/15 08:59:56;;;;;;;2.05;1.25;;;29.00;94.00;;;;;;6245031;23;20024;-63
2023/07/15 09:02:23;;;;;;;2.28;1.40;;;29.20;94.40;;;;;;6244657;23;20024;-62
2023/07/15 09:04:50;;;;;;;2.55;1.30;;;29.30;94.30;;;;;;6244763;23;20038;-63
2023/07/15 09:07:26;;;;;;;4.47;1.23;;;29.80;94.00;;;;;;6245815;23;20346;-62
2023/07/15 09:09:53;;;;;;;3.83;1.35;;;30.20;93.40;;;;;;6244771;23;20020;-62
2023/07/15 09:12:24;;;;;;;2.58;1.33;;;30.70;93.90;;;;;;6246325;23;20107;-62
2023/07/15 09:14:51;;;;;;;4.68;1.52;;;31.20;92.90;;;;;;6243889;23;20102;-63
2023/07/15 09:17:21;;;;;;;3.13;1.70;;;31.20;92.00;;;;;;6244505;23;20052;-63
2023/07/15 09:19:48;;;;;;;2.65;1.38;;;31.10;92.40;;;;;;6244487;23;20024;-60
2023/07/15 09:22:16;;;;;;;4.85;1.50;;;31.10;91.90;;;;;;6243603;23;20024;-61
2023/07/15 09:24:44;;;;;;;5.47;1.42;;;31.10;92.00;;;;;;6246413;23;20478;-62
2023/07/15 09:27:11;;;;;;;3.42;1.30;;;31.10;91.90;;;;;;6244955;22;20528;-61
2023/07/15 09:29:38;;;;;;;2.50;1.40;;;30.60;92.00;;;;;;6246324;23;20020;-62
2023/07/15 09:32:07;;;;;;;4.53;1.50;;;30.10;92.60;;;;;;6246189;23;20443;-62
2023/07/15 09:34:40;;;;;;;5.13;1.40;;;29.80;92.80;;;;;;6243696;23;20134;-63
2023/07/15 09:37:07;;;;;;;2.47;1.40;;;29.60;93.00;;;;;;6244299;23;20091;-61
2023/07/15 09:39:34;;;;;;;2.83;1.30;;;29.00;93.50;;;;;;6244378;23;20020;-61
2023/07/15 09:42:04;;;;;;;2.35;1.25;;;28.60;94.10;;;;;;6244941;23;20031;-61
2023/07/15 09:44:36;;;;;;;6.03;1.63;;;28.70;94.00;;;;;;6246046;23;20098;-61
2023/07/15 09:47:04;;;;;;;3.55;1.50;;;28.60;93.90;;;;;;6244130;23;20028;-62
2023/07/15 09:49:31;;;;;;;4.32;1.67;;;28.60;94.00;;;;;;6243157;23;20466;-61
2023/07/15 09:51:59;;;;;;;3.97;1.63;;;28.50;94.20;;;;;;6243433;23;20039;-61
2023/07/15 09:54:27;;;;;;;3.03;1.55;;;28.60;94.30;;;;;;6245537;23;20048;-62
2023/07/15 09:57:10;;;;;;;2.67;1.30;;;28.90;94.30;;;;;;6244887;23;20059;-62
2023/07/15 09:59:44;;;;;;;3.33;1.67;;;29.00;94.00;;;;;;6245356;22;20049;-61
2023/07/15 10:02:19;;;;;;;5.47;1.70;;;28.60;94.30;;;;;;6244111;23;20306;-62
2023/07/15 10:04:46;;;;;;;2.65;1.45;;;28.20;94.60;;;;;;6244198;23;20512;-61
2023/07/15 10:07:15;;;;;;;3.03;1.70;;;27.70;95.20;;;;;;6245674;23;20047;-63
2023/07/15 10:09:42;;;;;;;2.50;1.42;;;27.50;95.70;;;;;;6243478;23;20020;-62
2023/07/15 10:12:09;;;;;;;2.67;1.80;;;27.40;95.90;;;;;;6244136;23;20035;-61
2023/07/15 10:14:39;;;;;;;3.47;1.85;;;27.60;96.10;;;;;;6240730;23;20024;-61
2023/07/15 10:17:11;;;;;;;3.53;1.80;;;27.60;96.00;;;;;;6243919;23;20020;-60
2023/07/15 10:19:42;;;;;;;2.75;1.60;;;27.50;95.90;;;;;;6242688;23;20026;-61
2023/07/15 10:22:09;;;;;;;2.95;1.35;;;27.30;96.70;;;;;;6244380;23;20020;-61
2023/07/15 10:24:37;;;;;;;2.45;1.35;;;27.30;96.70;;;;;;6243796;23;20328;-62
2023/07/15 10:27:09;;;;;;;1.95;1.10;;;27.20;96.90;;;;;;6242794;23;20031;-62
2023/07/15 10:29:39;;;;;;;2.20;1.40;;;27.30;96.90;;;;;;6244412;23;20078;-62
2023/07/15 10:32:12;;;;;;;4.90;1.23;;;27.10;97.10;;;;;;6243083;23;20332;-62
2023/07/15 10:34:41;;;;;;;4.18;1.67;;;27.30;97.30;;;;;;6244464;22;20095;-61
2023/07/15 10:37:11;;;;;;;3.33;1.73;;;27.20;97.30;;;;;;6242689;23;20059;-62
2023/07/15 10:39:38;;;;;;;3.95;1.67;;;27.40;97.30;;;;;;6243389;22;20026;-62
2023/07/15 10:42:11;;;;;;;3.55;1.58;;;27.70;97.20;;;;;;6244018;23;20024;-62
2023/07/15 10:44:45;;;;;;;4.00;1.77;;;27.70;97.10;;;;;;6243444;23;20054;-62
2023/07/15 10:47:15;;;;;;;4.05;1.40;;;27.60;97.30;;;;;;6243891;23;20026;-63
2023/07/15 10:49:44;;;;;;;2.80;1.65;;;27.50;97.30;;;;;;6243536;23;20031;-62
2023/07/15 10:52:12;;;;;;;3.25;1.90;;;27.50;97.30;;;;;;6242123;23;20078;-62
2023/07/15 10:54:40;;;;;;;3.45;1.83;;;27.90;97.10;;;;;;6241829;23;20074;-62
2023/07/15 10:57:09;;;;;;;5.80;2.00;;;28.30;96.80;;;;;;6244298;22;20024;-62
2023/07/15 10:59:37;;;;;;;4.25;2.00;;;28.30;96.40;;;;;;6243297;22;20342;-62
2023/07/15 11:02:06;;;;;;;3.15;1.80;;;28.40;96.40;;;;;;6242791;23;20461;-61
2023/07/15 11:04:33;;;;;;;3.25;1.70;;;28.20;96.30;;;;;;6242008;23;20074;-62
2023/07/15 11:07:02;;;;;;;4.50;1.70;;;28.00;96.10;;;;;;6243665;23;20026;-61
2023/07/15 11:09:29;;;;;;;2.65;1.60;;;27.70;96.00;;;;;;6243609;23;20020;-61
2023/07/15 11:11:57;;;;;;;4.82;2.05;;;27.90;96.20;;;;;;6244437;23;20089;-62
2023/07/15 11:14:25;;;;;;;4.28;1.85;;;28.30;96.10;;;;;;6241383;23;20027;-62
2023/07/15 11:16:53;;;;;;;5.45;1.88;;;28.80;95.50;;;;;;6244041;23;20461;-62
2023/07/15 11:19:23;;;;;;;3.75;1.70;;;29.10;95.10;;;;;;6243851;23;20066;-62
2023/07/15 11:21:52;;;;;;;3.13;1.60;;;29.80;94.50;;;;;;6240657;23;20035;-61
2023/07/15 11:24:21;;;;;;;5.17;1.90;;;30.40;94.10;;;;;;6243317;23;20028;-61
2023/07/15 11:26:48;;;;;;;3.65;1.58;;;30.90;93.70;;;;;;6241916;23;20024;-62
2023/07/15 11:29:16;;;;;;;4.82;1.70;;;30.80;93.30;;;;;;6241653;23;20083;-61
2023/07/15 11:31:43;;;;;;;2.65;1.42;;;30.50;93.20;;;;;;6242518;23;20458;-62
2023/07/15 11:34:11;;;;;;;2.85;1.67;;;30.40;93.20;;;;;;6241451;23;20032;-61
2023/07/15 11:36:40;;;;;;;3.25;1.45;;;30.40;93.30;;;;;;6244123;23;20027;-61
2023/07/15 11:39:08;;;;;;;2.20;1.30;;;31.00;93.00;;;;;;6243742;23;20066;-61
2023/07/15 11:41:36;;;;;;;4.15;1.50;;;31.20;93.10;;;;;;6243486;23;20031;-62
2023/07/15 11:44:07;;;;;;;4.70;1.50;;;30.80;92.70;;;;;;6243351;23;20024;-61
2023/07/15 11:46:35;;;;;;;2.85;1.42;;;30.10;92.40;;;;;;6245942;23;20064;-61
2023/07/15 11:49:03;;;;;;;4.43;1.58;;;29.60;92.70;;;;;;6243706;23;20107;-71
2023/07/15 11:51:31;;;;;;;3.17;1.42;;;28.90;92.90;;;;;;6244274;23;20031;-62
2023/07/15 11:54:00;;;;;;;2.63;1.30;;;28.70;93.50;;;;;;6245689;23;20099;-67
2023/07/15 11:56:38;;;;;;;2.72;1.40;;;28.70;93.80;;;;;;6243234;23;20020;-64
2023/07/15 11:59:08;;;;;;;2.17;1.30;;;28.90;93.90;;;;;;6245520;23;20024;-64
2023/07/15 12:01:37;;;;;;;3.17;1.40;;;28.90;94.10;;;;;;6243967;23;20044;-64
2023/07/15 12:04:13;;;;;;;3.85;1.35;;;28.90;93.80;;;;;;6245379;23;20024;-64
2023/07/15 12:06:48;;;;;;;4.43;1.38;;;29.00;93.80;;;;;;6245808;22;20039;-64
2023/07/15 12:09:17;;;;;;;3.00;1.35;;;29.40;93.70;;;;;;6244255;23;20055;-64
2023/07/15 12:11:46;;;;;;;2.75;1.42;;;30.00;93.30;;;;;;6245325;23;20027;-63
2023/07/15 12:14:15;;;;;;;4.60;1.30;;;30.50;93.00;;;;;;6243610;23;20351;-66
2023/07/15 12:16:43;;;;;;;2.45;1.10;;;30.70;92.30;;;;;;6243269;23;20024;-64
2023/07/15 12:19:12;;;;;;;2.00;1.10;;;31.20;91.80;;;;;;6245058;23;20024;-64
2023/07/15 12:21:39;;;;;;;3.17;1.03;;;31.00;91.80;;;;;;6245142;23;20024;-64
2023/07/15 12:24:06;;;;;;;3.53;1.30;;;30.70;91.80;;;;;;6242490;23;20028;-65
2023/07/15 12:26:35;;;;;;;3.47;1.00;;;30.60;91.90;;;;;;6245574;23;20020;-65
2023/07/15 12:29:02;;;;;;;2.88;1.10;;;30.80;91.90;;;;;;6243440;23;20486;-66
2023/07/15 12:31:30;;;;;;;2.38;1.10;;;31.20;92.10;;;;;;6244906;23;20098;-65
2023/07/15 12:33:57;;;;;;;3.58;1.15;;;31.20;91.40;;;;;;6243545;23;20034;-65
2023/07/15 12:36:24;;;;;;;2.75;1.30;;;30.70;91.60;;;;;;6245762;23;20024;-66
2023/07/15 12:38:51;;;;;;;2.80;1.10;;;30.40;92.10;;;;;;6242328;23;20028;-66
2023/07/15 12:41:18;;;;;;;2.70;1.30;;;30.00;92.30;;;;;;6245993;23;20024;-65
2023/07/15 12:43:46;;;;;;;5.72;1.60;;;30.00;92.60;;;;;;6244910;22;20031;-65
2023/07/15 12:46:13;;;;;;;4.28;1.35;;;30.50;92.50;;;;;;6243234;23;20082;-65
2023/07/15 12:48:41;;;;;;;2.42;1.20;;;30.90;92.20;;;;;;6242905;23;20021;-65
2023/07/15 12:51:08;;;;;;;4.43;1.40;;;31.20;91.70;;;;;;6243584;23;20020;-64